Time;durP1;ratioP1;P1;durP2;ratioP2;P2;SDS_P1;SDS_P2;PMS_P1;PMS_P2;Temp;Humidity;BMP_temperature;BMP_pressure;BME280_temperature;BME280_humidity;BME280_pressure;Samples;Min_cycle;Max_cycle;Signal;HPM_P1;HPM_P2
2022/01/15 00:02:18;;;;;;;;;;;;;;;-3.35;75.18;95594.13;5075831;28;933;-49
2022/01/15 00:04:43;;;;;;;;;;;;;;;-3.33;75.02;95594.06;5076440;28;1020;-49
2022/01/15 00:07:09;;;;;;;;;;;;;;;-3.47;74.92;95592.03;5075842;28;1902;-48
2022/01/15 00:09:37;;;;;;;;;;;;;;;-3.76;75.45;95585.41;5076325;28;2404;-49
2022/01/15 00:12:04;;;;;;;;;;;;;;;-3.96;76.85;95587.09;5075831;28;1181;-49
2022/01/15 00:14:36;;;;;;;;;;;;;;;-3.73;76.65;95585.28;5074983;28;1057;-49
2022/01/15 00:17:18;;;;;;;;;;;;;;;-3.44;75.52;95581.44;5074420;28;1045;-49
2022/01/15 00:19:44;;;;;;;;;;;;;;;-3.47;75.62;95581.59;5075914;28;1053;-48
2022/01/15 00:22:11;;;;;;;;;;;;;;;-3.58;75.28;95573.34;5075774;28;989;-49
2022/01/15 00:24:37;;;;;;;;;;;;;;;-3.59;75.96;95588.16;5075787;28;1093;-49
2022/01/15 00:27:04;;;;;;;;;;;;;;;-3.56;75.97;95576.75;5075874;28;986;-49
2022/01/15 00:29:32;;;;;;;;;;;;;;;-3.56;76.80;95588.03;5075371;28;1910;-49
2022/01/15 00:31:59;;;;;;;;;;;;;;;-3.64;74.70;95587.53;5075359;28;1131;-49
2022/01/15 00:34:25;;;;;;;;;;;;;;;-3.69;75.44;95591.25;5075792;28;1004;-48
2022/01/15 00:36:51;;;;;;;;;;;;;;;-3.74;76.24;95583.59;5075646;28;1170;-49
2022/01/15 00:39:17;;;;;;;;;;;;;;;-3.73;75.22;95583.53;5075330;28;1219;-49
2022/01/15 00:41:43;;;;;;;;;;;;;;;-3.71;75.74;95580.00;5075638;28;973;-49
2022/01/15 00:44:10;;;;;;;;;;;;;;;-3.83;76.19;95583.97;5075322;28;977;-49
2022/01/15 00:46:36;;;;;;;;;;;;;;;-3.80;76.48;95595.16;5075539;28;1063;-49
2022/01/15 00:49:02;;;;;;;;;;;;;;;-3.79;76.72;95588.19;5075546;28;1906;-48
2022/01/15 00:51:28;;;;;;;;;;;;;;;-3.95;75.71;95587.94;5075236;28;1001;-49
2022/01/15 00:53:54;;;;;;;;;;;;;;;-4.04;76.01;95596.16;5075557;28;1036;-49
2022/01/15 00:56:20;;;;;;;;;;;;;;;-3.94;76.90;95593.09;5075044;28;1031;-49
2022/01/15 00:58:46;;;;;;;;;;;;;;;-3.80;76.85;95594.31;5075224;28;1049;-49
2022/01/15 01:01:12;;;;;;;;;;;;;;;-3.85;75.87;95597.13;5074795;28;1053;-49
2022/01/15 01:03:38;;;;;;;;;;;;;;;-3.86;75.63;95590.19;5075303;28;1052;-49
2022/01/15 01:06:04;;;;;;;;;;;;;;;-3.83;75.88;95579.63;5075007;28;1072;-49
2022/01/15 01:08:30;;;;;;;;;;;;;;;-3.73;75.62;95577.47;5074843;28;958;-49
2022/01/15 01:11:02;;;;;;;;;;;;;;;-3.76;75.63;95578.41;5074248;28;1910;-49
2022/01/15 01:24:11;;;;;;;;;;;;;;;-3.92;76.13;95573.00;5074937;28;1012;-49
2022/01/15 01:31:51;;;;;;;;;;;;;;;-4.29;76.84;95570.19;5074358;28;1038;-49
2022/01/15 01:34:18;;;;;;;;;;;;;;;-4.26;77.88;95564.84;5074609;28;977;-48
2022/01/15 01:39:18;;;;;;;;;;;;;;;-3.96;77.04;95562.75;5074104;28;1825;-49
2022/01/15 01:42:03;;;;;;;;;;;;;;;-3.94;76.19;95563.53;5074563;28;1061;-48
2022/01/15 01:44:29;;;;;;;;;;;;;;;-3.95;75.49;95569.66;5074154;28;1140;-48
2022/01/15 01:47:03;;;;;;;;;;;;;;;-4.04;76.23;95570.03;5074219;28;1052;-48
2022/01/15 01:49:29;;;;;;;;;;;;;;;-4.05;76.35;95570.97;5074356;28;1979;-49
2022/01/15 01:51:55;;;;;;;;;;;;;;;-4.06;75.76;95561.41;5072859;28;941;-48
2022/01/15 01:54:21;;;;;;;;;;;;;;;-3.99;76.02;95581.16;5074050;28;969;-49
2022/01/15 01:56:48;;;;;;;;;;;;;;;-3.97;76.40;95571.47;5074271;28;969;-49
2022/01/15 01:59:16;;;;;;;;;;;;;;;-4.16;75.58;95560.94;5073454;28;969;-48
2022/01/15 02:01:42;;;;;;;;;;;;;;;-4.23;76.61;95546.41;5073883;28;1084;-48
2022/01/15 02:04:09;;;;;;;;;;;;;;;-4.15;76.40;95553.03;5073595;28;1033;-49
2022/01/15 02:06:36;;;;;;;;;;;;;;;-4.10;76.80;95558.06;5074048;28;1021;-48
2022/01/15 02:09:04;;;;;;;;;;;;;;;-4.00;76.02;95542.91;5073564;28;1985;-48
2022/01/15 02:11:30;;;;;;;;;;;;;;;-3.97;75.74;95542.75;5073759;28;961;-49
2022/01/15 02:13:57;;;;;;;;;;;;;;;-4.13;75.20;95545.16;5073693;28;985;-49
2022/01/15 02:16:23;;;;;;;;;;;;;;;-4.12;75.47;95550.31;5073568;28;1032;-49
2022/01/15 02:18:53;;;;;;;;;;;;;;;-4.15;76.78;95546.97;5073655;28;1060;-48
2022/01/15 02:23:46;;;;;;;;;;;;;;;-4.20;76.95;95549.75;5072578;28;965;-49
2022/01/15 02:26:17;;;;;;;;;;;;;;;-4.24;76.87;95540.34;5073442;28;1058;-48
2022/01/15 02:28:54;;;;;;;;;;;;;;;-4.39;76.39;95535.75;5073288;28;990;-49
2022/01/15 02:31:21;;;;;;;;;;;;;;;-4.51;76.84;95526.66;5073575;28;1072;-49
2022/01/15 02:33:48;;;;;;;;;;;;;;;-4.62;77.83;95532.28;5073557;28;953;-49
2022/01/15 02:36:16;;;;;;;;;;;;;;;-4.44;77.35;95542.91;5073579;28;1209;-49
2022/01/15 02:38:42;;;;;;;;;;;;;;;-4.40;77.67;95537.53;5073189;28;1235;-49
2022/01/15 02:41:08;;;;;;;;;;;;;;;-4.33;77.46;95538.13;5073493;28;1067;-48
2022/01/15 02:43:35;;;;;;;;;;;;;;;-4.17;76.31;95556.63;5073280;28;957;-48
2022/01/15 02:46:18;;;;;;;;;;;;;;;-4.28;76.73;95551.84;5073535;28;988;-48
2022/01/15 02:48:46;;;;;;;;;;;;;;;-4.23;77.55;95549.91;5073440;28;1112;-48
2022/01/15 02:51:12;;;;;;;;;;;;;;;-4.14;77.11;95548.66;5073421;28;1906;-48
2022/01/15 02:53:38;;;;;;;;;;;;;;;-4.09;76.67;95556.31;5073134;28;981;-48
2022/01/15 02:56:04;;;;;;;;;;;;;;;-4.10;75.59;95549.38;5073074;28;1045;-48
2022/01/15 02:58:30;;;;;;;;;;;;;;;-4.04;76.16;95557.84;5072871;28;992;-48
2022/01/15 03:00:56;;;;;;;;;;;;;;;-4.07;75.86;95547.50;5073447;28;1052;-48
2022/01/15 03:03:22;;;;;;;;;;;;;;;-4.12;75.53;95547.72;5073192;28;1053;-48
2022/01/15 03:05:48;;;;;;;;;;;;;;;-4.23;76.57;95538.59;5073342;28;1037;-48
2022/01/15 03:08:14;;;;;;;;;;;;;;;-4.23;76.93;95544.69;5072820;28;1894;-48
2022/01/15 03:10:40;;;;;;;;;;;;;;;-4.18;76.20;95547.09;5073276;28;1915;-48
2022/01/15 03:13:15;;;;;;;;;;;;;;;-4.18;76.72;95547.94;5073201;28;1048;-48
2022/01/15 03:15:42;;;;;;;;;;;;;;;-4.25;76.28;95553.47;5073151;28;1037;-48
2022/01/15 03:18:08;;;;;;;;;;;;;;;-4.10;76.53;95546.78;5073044;28;1024;-49
2022/01/15 03:20:34;;;;;;;;;;;;;;;-4.15;77.11;95533.91;5072836;28;1044;-48
2022/01/15 03:23:00;;;;;;;;;;;;;;;-4.15;77.11;95532.16;5073195;28;1028;-49
2022/01/15 03:25:26;;;;;;;;;;;;;;;-4.25;75.45;95530.84;5073149;28;1064;-48
2022/01/15 03:27:52;;;;;;;;;;;;;;;-4.24;75.38;95544.75;5072597;28;1065;-48
2022/01/15 03:30:18;;;;;;;;;;;;;;;-4.38;76.30;95540.06;5072815;28;1922;-48
2022/01/15 03:32:44;;;;;;;;;;;;;;;-4.26;76.97;95533.50;5072780;28;1116;-48
2022/01/15 03:35:11;;;;;;;;;;;;;;;-4.02;76.62;95531.63;5075304;28;1158;-48
2022/01/15 03:37:37;;;;;;;;;;;;;;;-3.96;76.15;95544.47;5076462;28;1085;-49
2022/01/15 03:40:04;;;;;;;;;;;;;;;-4.08;76.02;95537.94;5076490;28;1045;-48
2022/01/15 03:42:30;;;;;;;;;;;;;;;-4.25;75.40;95556.94;5076716;28;981;-49
2022/01/15 03:44:56;;;;;;;;;;;;;;;-4.23;75.75;95543.81;5076402;28;1052;-48
2022/01/15 03:47:22;;;;;;;;;;;;;;;-4.14;75.73;95552.13;5076535;28;1009;-48
2022/01/15 03:49:48;;;;;;;;;;;;;;;-4.22;76.67;95551.59;5076238;28;1995;-48
2022/01/15 03:52:14;;;;;;;;;;;;;;;-4.33;76.77;95561.63;5076568;28;1016;-48
2022/01/15 03:54:40;;;;;;;;;;;;;;;-4.27;76.27;95550.91;5076443;28;980;-49
2022/01/15 03:57:06;;;;;;;;;;;;;;;-4.10;76.23;95549.38;5076306;28;1862;-49
2022/01/15 03:59:32;;;;;;;;;;;;;;;-4.04;76.70;95556.97;5076015;28;1029;-49
2022/01/15 04:01:58;;;;;;;;;;;;;;;-4.13;76.42;95556.44;5076260;28;1992;-47
2022/01/15 04:04:24;;;;;;;;;;;;;;;-4.14;76.76;95562.56;5076164;28;1076;-48
2022/01/15 04:06:50;;;;;;;;;;;;;;;-4.06;76.42;95551.84;5076188;28;962;-49
2022/01/15 04:09:17;;;;;;;;;;;;;;;-3.97;76.98;95558.41;5076025;28;1926;-48
2022/01/15 04:11:44;;;;;;;;;;;;;;;-3.88;76.10;95550.19;5076347;28;1060;-49
2022/01/15 04:14:11;;;;;;;;;;;;;;;-3.96;75.83;95549.69;5075892;28;982;-49
2022/01/15 04:16:37;;;;;;;;;;;;;;;-3.99;76.53;95558.47;5076111;28;981;-49
2022/01/15 04:19:03;;;;;;;;;;;;;;;-3.93;76.49;95562.59;5075920;28;1048;-49
2022/01/15 04:21:29;;;;;;;;;;;;;;;-3.92;77.01;95559.94;5075927;28;1052;-48
2022/01/15 04:23:55;;;;;;;;;;;;;;;-3.83;77.13;95563.94;5076098;28;1055;-48
2022/01/15 04:26:26;;;;;;;;;;;;;;;-3.85;77.51;95577.97;5075759;28;1051;-49
2022/01/15 04:28:52;;;;;;;;;;;;;;;-3.81;77.38;95572.56;5075738;28;1977;-48
2022/01/15 04:31:19;;;;;;;;;;;;;;;-3.83;77.19;95584.84;5075799;28;1027;-48
2022/01/15 04:33:45;;;;;;;;;;;;;;;-3.82;77.75;95581.28;5075733;28;1025;-49
2022/01/15 04:36:11;;;;;;;;;;;;;;;-3.71;77.24;95591.31;5075241;28;1209;-48
2022/01/15 04:38:38;;;;;;;;;;;;;;;-3.58;75.93;95587.25;5075412;28;1180;-49
2022/01/15 04:41:04;;;;;;;;;;;;;;;-3.78;76.67;95595.94;5075662;28;1041;-49
2022/01/15 04:43:30;;;;;;;;;;;;;;;-3.74;76.35;95589.69;5075316;28;1029;-49
2022/01/15 04:45:57;;;;;;;;;;;;;;;-3.82;76.66;95596.97;5074333;28;969;-48
2022/01/15 04:48:23;;;;;;;;;;;;;;;-3.73;76.19;95599.22;5075407;28;933;-48
2022/01/15 04:50:49;;;;;;;;;;;;;;;-3.71;77.14;95590.47;5075039;28;1905;-48
2022/01/15 04:53:15;;;;;;;;;;;;;;;-3.64;76.73;95584.91;5075459;28;1001;-49
2022/01/15 04:55:41;;;;;;;;;;;;;;;-3.59;76.66;95590.78;5075403;28;1032;-49
2022/01/15 04:58:07;;;;;;;;;;;;;;;-3.48;76.72;95589.50;5075145;28;1051;-49
2022/01/15 05:00:34;;;;;;;;;;;;;;;-3.37;76.55;95589.88;5075264;28;957;-49
2022/01/15 05:03:00;;;;;;;;;;;;;;;-3.38;77.23;95598.63;5075151;28;1049;-49
2022/01/15 05:05:27;;;;;;;;;;;;;;;-3.41;77.31;95594.38;5074771;28;1877;-49
2022/01/15 05:07:53;;;;;;;;;;;;;;;-3.34;77.28;95597.56;5074993;28;1049;-49
2022/01/15 05:10:21;;;;;;;;;;;;;;;-3.27;77.39;95604.25;5074634;28;1999;-49
2022/01/15 05:12:49;;;;;;;;;;;;;;;-3.22;76.73;95602.28;5075126;28;964;-49
2022/01/15 05:15:16;;;;;;;;;;;;;;;-3.15;77.88;95613.31;5073758;28;937;-49
2022/01/15 05:17:42;;;;;;;;;;;;;;;-3.10;77.17;95613.97;5075110;28;1047;-48
2022/01/15 05:20:09;;;;;;;;;;;;;;;-3.12;77.87;95612.34;5074447;28;1045;-49
2022/01/15 05:22:35;;;;;;;;;;;;;;;-3.10;78.00;95629.69;5075018;28;1017;-48
2022/01/15 05:25:02;;;;;;;;;;;;;;;-3.02;77.10;95639.81;5074535;28;1104;-48
2022/01/15 05:27:28;;;;;;;;;;;;;;;-2.89;77.11;95640.13;5074221;28;1089;-48
2022/01/15 05:29:54;;;;;;;;;;;;;;;-2.84;76.44;95643.41;5074569;28;1906;-48
2022/01/15 05:32:23;;;;;;;;;;;;;;;-2.83;76.90;95639.84;5074307;28;1048;-48
2022/01/15 05:34:49;;;;;;;;;;;;;;;-2.76;76.42;95651.75;5074352;28;1989;-48
2022/01/15 05:37:16;;;;;;;;;;;;;;;-2.66;75.52;95646.94;5074195;28;1228;-49
2022/01/15 05:39:42;;;;;;;;;;;;;;;-2.53;76.95;95649.88;5074394;28;1103;-49
2022/01/15 05:42:08;;;;;;;;;;;;;;;-2.43;76.93;95640.66;5073991;28;1101;-49
2022/01/15 05:44:35;;;;;;;;;;;;;;;-2.45;77.73;95648.56;5074340;28;969;-49
2022/01/15 05:47:01;;;;;;;;;;;;;;;-2.37;77.31;95648.25;5074373;28;1047;-48
2022/01/15 05:49:29;;;;;;;;;;;;;;;-2.29;77.17;95645.28;5073936;28;1914;-48
2022/01/15 05:51:55;;;;;;;;;;;;;;;-2.22;77.10;95658.03;5073971;28;1077;-47
2022/01/15 05:54:21;;;;;;;;;;;;;;;-2.01;79.59;95657.91;5074295;28;1060;-48
2022/01/15 05:56:47;;;;;;;;;;;;;;;-1.86;78.15;95665.06;5073846;28;1048;-49
2022/01/15 05:59:13;;;;;;;;;;;;;;;-1.89;78.43;95667.81;5073767;28;1016;-48
2022/01/15 06:01:39;;;;;;;;;;;;;;;-1.86;77.90;95667.69;5074108;28;988;-48
2022/01/15 06:04:05;;;;;;;;;;;;;;;-1.90;77.86;95662.66;5072944;28;998;-48
2022/01/15 06:06:32;;;;;;;;;;;;;;;-1.80;77.37;95664.78;5073727;28;2025;-48
2022/01/15 06:08:58;;;;;;;;;;;;;;;-1.60;76.65;95657.69;5073935;28;1988;-49
2022/01/15 06:11:24;;;;;;;;;;;;;;;-1.39;77.45;95650.53;5073373;28;1065;-48
2022/01/15 06:13:50;;;;;;;;;;;;;;;-1.20;76.10;95653.94;5073847;28;1053;-49
2022/01/15 06:16:16;;;;;;;;;;;;;;;-1.09;76.14;95645.53;5072556;28;1230;-48
2022/01/15 06:18:42;;;;;;;;;;;;;;;-0.98;76.58;95648.44;5073532;28;902;-48
2022/01/15 06:21:08;;;;;;;;;;;;;;;-0.95;76.37;95647.44;5073585;28;1023;-48
2022/01/15 06:23:34;;;;;;;;;;;;;;;-0.92;76.60;95634.16;5073831;28;1048;-48
2022/01/15 06:26:00;;;;;;;;;;;;;;;-0.79;75.96;95642.25;5073335;28;1877;-48
2022/01/15 06:28:26;;;;;;;;;;;;;;;-0.65;77.22;95650.25;5073142;28;1009;-48
2022/01/15 06:30:52;;;;;;;;;;;;;;;-0.50;75.90;95659.09;5073739;28;1914;-47
2022/01/15 06:33:19;;;;;;;;;;;;;;;-0.38;75.36;95657.59;5073364;28;965;-48
2022/01/15 06:35:45;;;;;;;;;;;;;;;-0.26;74.47;95659.56;5073555;28;1166;-48
2022/01/15 06:38:11;;;;;;;;;;;;;;;-0.20;73.72;95667.13;5073135;28;1077;-47
2022/01/15 06:40:37;;;;;;;;;;;;;;;-0.14;74.20;95667.72;5073573;28;997;-48
2022/01/15 06:43:05;;;;;;;;;;;;;;;0.02;74.05;95675.59;5073034;28;1103;-48
2022/01/15 06:45:32;;;;;;;;;;;;;;;0.34;73.33;95681.72;5073260;28;1046;-49
2022/01/15 06:47:58;;;;;;;;;;;;;;;2.62;67.71;95694.38;5073067;28;1051;-48
2022/01/15 06:50:25;;;;;;;;;;;;;;;3.12;63.46;95687.56;5073091;28;1933;-48
2022/01/15 06:52:51;;;;;;;;;;;;;;;1.95;65.72;95693.28;5073015;28;1057;-49
2022/01/15 06:55:17;;;;;;;;;;;;;;;1.21;68.36;95677.59;5073119;28;1049;-48
2022/01/15 06:57:43;;;;;;;;;;;;;;;1.94;68.58;95693.38;5072863;28;1024;-49
2022/01/15 07:00:10;;;;;;;;;;;;;;;7.95;51.05;95695.13;5073231;28;1005;-49
2022/01/15 07:02:37;;;;;;;;;;;;;;;11.82;41.80;95698.28;5071703;28;984;-49
2022/01/15 07:05:03;;;;;;;;;;;;;;;14.05;36.51;95706.19;5073338;28;1064;-49
2022/01/15 07:07:29;;;;;;;;;;;;;;;13.06;37.18;95700.66;5073140;28;1001;-47
2022/01/15 07:09:55;;;;;;;;;;;;;;;11.88;39.23;95704.84;5075223;28;1909;-47
2022/01/15 07:12:21;;;;;;;;;;;;;;;11.78;40.01;95698.72;5076998;28;1024;-47
2022/01/15 07:14:48;;;;;;;;;;;;;;;12.45;38.44;95701.75;5077491;28;1013;-47
2022/01/15 07:17:13;;;;;;;;;;;;;;;13.21;37.74;95708.09;5077059;28;1045;-47
2022/01/15 07:19:40;;;;;;;;;;;;;;;11.91;40.79;95710.78;5075894;28;1064;-47
2022/01/15 07:22:06;;;;;;;;;;;;;;;12.42;39.26;95702.88;5076824;28;1076;-47
2022/01/15 07:24:32;;;;;;;;;;;;;;;14.20;35.67;95707.19;5077183;28;1063;-48
2022/01/15 07:26:58;;;;;;;;;;;;;;;14.49;34.45;95711.16;5076899;28;965;-47
2022/01/15 07:29:25;;;;;;;;;;;;;;;14.20;34.91;95711.72;5076722;28;2000;-47
2022/01/15 07:31:52;;;;;;;;;;;;;;;14.42;34.55;95711.00;5076756;28;977;-47
2022/01/15 07:34:19;;;;;;;;;;;;;;;14.92;34.18;95713.59;5077002;28;969;-47
2022/01/15 07:36:50;;;;;;;;;;;;;;;14.95;33.93;95711.41;5076843;28;1158;-47
2022/01/15 07:39:16;;;;;;;;;;;;;;;13.82;35.94;95706.84;5076297;28;1235;-47
2022/01/15 07:41:42;;;;;;;;;;;;;;;11.35;40.15;95719.13;5076856;28;1115;-47
2022/01/15 07:44:08;;;;;;;;;;;;;;;8.80;46.18;95717.94;5076343;28;1231;-47
2022/01/15 07:46:34;;;;;;;;;;;;;;;7.21;50.49;95728.78;5076442;28;965;-47
2022/01/15 07:49:00;;;;;;;;;;;;;;;6.20;53.47;95721.81;5076444;28;1905;-46
2022/01/15 07:51:26;;;;;;;;;;;;;;;5.67;55.58;95726.75;5076702;28;1029;-46
2022/01/15 07:53:52;;;;;;;;;;;;;;;5.35;57.03;95727.41;5076432;28;969;-47
2022/01/15 07:56:18;;;;;;;;;;;;;;;5.06;58.21;95729.56;5076228;28;1033;-47
2022/01/15 07:58:44;;;;;;;;;;;;;;;4.95;58.74;95730.38;5075779;28;1089;-47
2022/01/15 08:01:10;;;;;;;;;;;;;;;4.97;59.30;95714.31;5076330;28;1080;-47
2022/01/15 08:03:36;;;;;;;;;;;;;;;4.95;59.44;95729.50;5076373;28;1052;-48
2022/01/15 08:06:02;;;;;;;;;;;;;;;5.06;58.91;95729.56;5076104;28;1971;-47
2022/01/15 08:08:28;;;;;;;;;;;;;;;5.23;58.95;95738.91;5076007;28;1043;-47
2022/01/15 08:10:54;;;;;;;;;;;;;;;5.32;58.65;95737.38;5075873;28;1901;-47
2022/01/15 08:13:20;;;;;;;;;;;;;;;5.41;57.70;95742.00;5075840;28;1042;-46
2022/01/15 08:15:46;;;;;;;;;;;;;;;5.51;56.93;95747.47;5075928;28;1037;-48
2022/01/15 08:18:12;;;;;;;;;;;;;;;5.67;57.24;95759.47;5075754;28;1053;-48
2022/01/15 08:20:38;;;;;;;;;;;;;;;5.89;55.87;95741.06;5076205;28;969;-49
2022/01/15 08:23:04;;;;;;;;;;;;;;;5.98;55.48;95749.19;5075928;28;985;-48
2022/01/15 08:25:30;;;;;;;;;;;;;;;6.18;55.40;95752.94;5075589;28;1116;-48
2022/01/15 08:27:56;;;;;;;;;;;;;;;6.27;54.63;95754.03;5075879;28;1033;-48
2022/01/15 08:30:23;;;;;;;;;;;;;;;6.37;54.38;95760.28;5075688;28;1909;-48
2022/01/15 08:32:49;;;;;;;;;;;;;;;6.61;53.61;95767.31;5075684;28;1108;-48
2022/01/15 08:35:15;;;;;;;;;;;;;;;6.89;52.86;95775.75;5075752;28;1166;-48
2022/01/15 08:37:41;;;;;;;;;;;;;;;7.02;52.42;95769.31;5075643;28;1108;-51
2022/01/15 08:40:08;;;;;;;;;;;;;;;7.39;51.50;95770.78;5075543;28;1145;-49
2022/01/15 08:42:35;;;;;;;;;;;;;;;7.46;50.74;95763.16;5075561;28;1128;-49
2022/01/15 08:45:01;;;;;;;;;;;;;;;7.19;51.05;95773.28;5075809;28;1043;-48
2022/01/15 08:47:27;;;;;;;;;;;;;;;7.23;51.06;95765.88;5074471;28;1095;-49
2022/01/15 08:49:53;;;;;;;;;;;;;;;7.01;51.73;95772.09;5075385;28;1901;-49
2022/01/15 08:52:19;;;;;;;;;;;;;;;7.06;51.28;95780.56;5075558;28;985;-49
2022/01/15 08:54:45;;;;;;;;;;;;;;;6.95;51.39;95778.75;5074954;28;1092;-48
2022/01/15 08:57:11;;;;;;;;;;;;;;;6.73;51.62;95773.47;5074895;28;1120;-48
2022/01/15 08:59:38;;;;;;;;;;;;;;;6.73;51.60;95770.81;5075062;28;965;-48
2022/01/15 09:02:04;;;;;;;;;;;;;;;6.67;51.67;95768.66;5075491;28;981;-48
2022/01/15 09:04:30;;;;;;;;;;;;;;;6.42;52.39;95771.41;5073919;28;981;-48
2022/01/15 09:06:56;;;;;;;;;;;;;;;6.82;51.54;95778.88;5075122;28;2041;-48
2022/01/15 09:09:22;;;;;;;;;;;;;;;8.45;48.39;95785.00;5074576;28;1985;-49
2022/01/15 09:11:48;;;;;;;;;;;;;;;8.67;47.17;95789.31;5075067;28;1199;-48
2022/01/15 09:14:14;;;;;;;;;;;;;;;7.92;48.48;95800.06;5074710;28;1063;-48
2022/01/15 09:16:40;;;;;;;;;;;;;;;7.21;49.41;95803.25;5074886;28;1116;-49
2022/01/15 09:19:06;;;;;;;;;;;;;;;6.90;50.24;95804.84;5074863;28;977;-49
2022/01/15 09:21:33;;;;;;;;;;;;;;;7.22;49.21;95810.25;5075126;28;1017;-48
2022/01/15 09:23:59;;;;;;;;;;;;;;;7.06;49.53;95811.59;5074576;28;1044;-49
2022/01/15 09:26:47;;;;;;;;;;;;;;;6.82;50.62;95809.94;5074594;28;929;-49
2022/01/15 09:31:57;;;;;;;;;;;;;;;7.29;48.43;95805.28;5073982;28;1029;-49
2022/01/15 09:34:23;;;;;;;;;;;;;;;6.99;49.10;95806.78;5073287;28;969;-49
2022/01/15 09:36:49;;;;;;;;;;;;;;;6.67;49.51;95800.53;5074629;28;1154;-49
2022/01/15 09:39:16;;;;;;;;;;;;;;;6.79;49.35;95796.88;5073962;28;1039;-49
2022/01/15 09:41:43;;;;;;;;;;;;;;;7.40;48.39;95802.59;5074256;28;1075;-48
2022/01/15 09:44:09;;;;;;;;;;;;;;;11.07;41.89;95808.28;5074473;28;1056;-49
2022/01/15 09:46:36;;;;;;;;;;;;;;;17.59;29.89;95818.88;5074414;28;1048;-49
2022/01/15 09:49:02;;;;;;;;;;;;;;;19.64;26.30;95822.81;5074536;28;1056;-49
2022/01/15 09:51:29;;;;;;;;;;;;;;;22.78;24.28;95818.75;5074119;28;1906;-48
2022/01/15 09:53:56;;;;;;;;;;;;;;;23.42;22.13;95815.88;5074020;28;2004;-48
2022/01/15 09:56:22;;;;;;;;;;;;;;;25.22;21.19;95801.69;5074016;28;981;-49
2022/01/15 09:58:48;;;;;;;;;;;;;;;26.00;19.73;95805.09;5074039;28;1083;-49
2022/01/15 10:01:14;;;;;;;;;;;;;;;26.32;18.04;95800.00;5074120;28;1048;-49
2022/01/15 10:03:40;;;;;;;;;;;;;;;26.77;18.18;95804.69;5074186;28;1111;-49
2022/01/15 10:06:06;;;;;;;;;;;;;;;26.92;20.20;95801.38;5074021;28;1044;-50
2022/01/15 10:08:32;;;;;;;;;;;;;;;26.99;17.61;95807.50;5074055;28;1159;-50
2022/01/15 10:11:01;;;;;;;;;;;;;;;27.35;17.50;95807.28;5073629;28;1998;-50
2022/01/15 10:13:30;;;;;;;;;;;;;;;27.36;16.90;95809.78;5074023;28;1033;-50
2022/01/15 10:15:59;;;;;;;;;;;;;;;27.03;17.15;95808.72;5073525;28;1045;-50
2022/01/15 10:18:25;;;;;;;;;;;;;;;27.01;17.52;95799.03;5073674;28;1859;-50
2022/01/15 10:20:52;;;;;;;;;;;;;;;25.27;18.34;95802.69;5073700;28;1164;-50
2022/01/15 10:23:19;;;;;;;;;;;;;;;23.18;20.13;95796.59;5073468;28;1044;-50
2022/01/15 10:25:45;;;;;;;;;;;;;;;16.35;27.86;95792.28;5073786;28;1040;-49
2022/01/15 10:28:11;;;;;;;;;;;;;;;12.51;33.19;95789.59;5073713;28;969;-49
2022/01/15 10:30:38;;;;;;;;;;;;;;;10.30;37.49;95790.63;5073601;28;1997;-50
2022/01/15 10:33:08;;;;;;;;;;;;;;;8.98;40.50;95785.66;5073555;28;961;-49
2022/01/15 10:35:38;;;;;;;;;;;;;;;8.22;42.06;95790.47;5073559;28;1158;-49
2022/01/15 10:38:07;;;;;;;;;;;;;;;7.75;43.23;95800.66;5073261;28;1093;-50
2022/01/15 10:40:40;;;;;;;;;;;;;;;7.63;43.16;95798.03;5073474;28;949;-49
2022/01/15 10:43:07;;;;;;;;;;;;;;;7.62;42.65;95788.34;5072946;28;1093;-48
2022/01/15 10:45:35;;;;;;;;;;;;;;;7.57;43.01;95787.91;5072774;28;993;-49
2022/01/15 10:48:04;;;;;;;;;;;;;;;7.43;43.07;95790.84;5073585;28;974;-48
2022/01/15 10:50:34;;;;;;;;;;;;;;;7.28;43.33;95794.75;5072857;28;1985;-48
2022/01/15 10:53:09;;;;;;;;;;;;;;;7.13;43.51;95792.41;5071956;28;1025;-49
2022/01/15 10:55:36;;;;;;;;;;;;;;;7.14;44.08;95787.91;5073216;28;973;-48
2022/01/15 10:58:06;;;;;;;;;;;;;;;9.70;39.86;95793.50;5072974;28;1049;-49
2022/01/15 11:00:35;;;;;;;;;;;;;;;9.39;39.78;95774.94;5073435;28;1001;-49
2022/01/15 11:03:02;;;;;;;;;;;;;;;10.75;37.61;95782.78;5073067;28;1025;-54
2022/01/15 11:05:34;;;;;;;;;;;;;;;11.50;36.23;95787.22;5073276;28;1020;-50
2022/01/15 11:08:08;;;;;;;;;;;;;;;11.95;34.83;95789.03;5073132;28;1067;-49
2022/01/15 11:10:38;;;;;;;;;;;;;;;12.16;34.85;95780.66;5073098;28;1910;-49
2022/01/15 11:13:06;;;;;;;;;;;;;;;12.19;34.53;95780.31;5072927;28;1076;-48
2022/01/15 11:15:36;;;;;;;;;;;;;;;11.03;36.25;95782.81;5073002;28;1064;-49
2022/01/15 11:18:04;;;;;;;;;;;;;;;11.51;35.81;95776.34;5072754;28;1025;-48
2022/01/15 11:20:32;;;;;;;;;;;;;;;11.87;35.05;95773.66;5073100;28;1001;-48
2022/01/15 11:23:00;;;;;;;;;;;;;;;11.96;35.27;95787.19;5072765;28;1003;-49
2022/01/15 11:25:27;;;;;;;;;;;;;;;11.78;34.85;95782.63;5072873;28;1037;-49
2022/01/15 11:27:53;;;;;;;;;;;;;;;11.50;35.69;95784.53;5072580;28;1136;-49
2022/01/15 11:30:19;;;;;;;;;;;;;;;11.47;35.87;95780.31;5072679;28;1996;-49
2022/01/15 11:32:46;;;;;;;;;;;;;;;11.24;35.86;95784.41;5072646;28;1091;-48
2022/01/15 11:35:12;;;;;;;;;;;;;;;10.74;36.47;95780.28;5072955;28;1165;-49
2022/01/15 11:37:42;;;;;;;;;;;;;;;10.42;37.30;95792.19;5072491;28;1104;-48
2022/01/15 11:40:24;;;;;;;;;;;;;;;10.12;37.01;95780.69;5072946;28;961;-48
2022/01/15 11:42:50;;;;;;;;;;;;;;;9.92;37.96;95776.34;5072488;28;973;-48
2022/01/15 11:45:35;;;;;;;;;;;;;;;9.66;38.34;95784.09;5073085;28;956;-48
2022/01/15 11:48:21;;;;;;;;;;;;;;;9.78;38.56;95774.94;5072972;28;1064;-49
2022/01/15 11:51:05;;;;;;;;;;;;;;;9.66;36.44;95770.75;5072738;28;1922;-48
2022/01/15 11:53:43;;;;;;;;;;;;;;;9.48;35.53;95774.06;5072592;28;966;-49
2022/01/15 11:56:17;;;;;;;;;;;;;;;9.33;35.52;95768.31;5074871;28;1101;-48
2022/01/15 11:58:43;;;;;;;;;;;;;;;9.34;36.11;95767.31;5076002;28;1045;-48
2022/01/15 12:01:27;;;;;;;;;;;;;;;9.30;36.22;95773.94;5076233;28;1084;-48
2022/01/15 12:04:13;;;;;;;;;;;;;;;9.36;35.02;95765.38;5076137;28;1108;-48
2022/01/15 12:06:58;;;;;;;;;;;;;;;9.36;34.65;95770.69;5076065;28;1110;-49
2022/01/15 12:09:34;;;;;;;;;;;;;;;9.07;33.21;95770.66;5075929;28;2001;-49
2022/01/15 12:12:02;;;;;;;;;;;;;;;9.02;33.90;95769.38;5076182;28;1031;-48
2022/01/15 12:14:46;;;;;;;;;;;;;;;9.01;33.62;95775.69;5076210;28;986;-49
2022/01/15 12:17:22;;;;;;;;;;;;;;;8.84;33.89;95769.16;5075736;28;1112;-49
2022/01/15 12:19:48;;;;;;;;;;;;;;;8.69;34.55;95772.22;5075968;28;1038;-49
2022/01/15 12:22:32;;;;;;;;;;;;;;;8.66;35.03;95777.81;5075639;28;1052;-49
2022/01/15 12:24:59;;;;;;;;;;;;;;;8.61;34.61;95782.69;5076085;28;1024;-48
2022/01/15 12:27:26;;;;;;;;;;;;;;;8.63;34.77;95783.41;5075642;28;998;-49
2022/01/15 12:30:18;;;;;;;;;;;;;;;8.57;34.74;95779.47;5075696;28;1905;-49
2022/01/15 12:32:47;;;;;;;;;;;;;;;8.60;35.17;95784.53;5072712;28;1892;-49
2022/01/15 12:35:20;;;;;;;;;;;;;;;8.46;34.04;95781.34;5075960;28;1162;-49
2022/01/15 12:37:52;;;;;;;;;;;;;;;8.35;32.93;95780.44;5075342;28;1089;-48
2022/01/15 12:40:20;;;;;;;;;;;;;;;8.17;33.36;95776.69;5075700;28;1049;-48
2022/01/15 12:42:53;;;;;;;;;;;;;;;8.15;33.27;95782.13;5075672;28;1004;-48
2022/01/15 12:45:19;;;;;;;;;;;;;;;8.14;33.92;95787.63;5075730;28;1018;-48
2022/01/15 12:47:46;;;;;;;;;;;;;;;8.10;34.08;95783.50;5075201;28;976;-48
2022/01/15 12:50:13;;;;;;;;;;;;;;;8.04;33.34;95781.38;5075614;28;1910;-49
2022/01/15 12:52:39;;;;;;;;;;;;;;;7.99;33.90;95779.94;5075100;28;1033;-48
2022/01/15 12:55:05;;;;;;;;;;;;;;;7.97;33.94;95781.06;5074431;28;981;-48
2022/01/15 12:57:51;;;;;;;;;;;;;;;7.81;33.49;95777.00;5075038;28;1124;-48
2022/01/15 13:00:20;;;;;;;;;;;;;;;7.73;33.94;95783.97;5075148;28;1879;-49
2022/01/15 13:02:48;;;;;;;;;;;;;;;7.67;34.52;95776.50;5075273;28;1008;-48
2022/01/15 13:05:14;;;;;;;;;;;;;;;7.66;34.32;95780.09;5075368;28;1048;-48
2022/01/15 13:07:54;;;;;;;;;;;;;;;7.57;34.54;95785.22;5074247;28;1052;-48
2022/01/15 13:10:29;;;;;;;;;;;;;;;7.54;34.81;95790.81;5074908;28;2008;-48
2022/01/15 13:12:55;;;;;;;;;;;;;;;7.40;34.74;95794.59;5074782;28;1096;-49
2022/01/15 13:15:22;;;;;;;;;;;;;;;7.37;34.79;95786.03;5075097;28;1028;-49
2022/01/15 13:17:49;;;;;;;;;;;;;;;7.34;35.67;95795.13;5074953;28;1048;-49
2022/01/15 13:20:25;;;;;;;;;;;;;;;7.36;35.90;95789.66;5074637;28;1045;-49
2022/01/15 13:22:52;;;;;;;;;;;;;;;7.32;35.96;95789.09;5074579;28;1089;-48
2022/01/15 13:25:22;;;;;;;;;;;;;;;7.14;34.63;95791.41;5074496;28;1113;-49
2022/01/15 13:27:47;;;;;;;;;;;;;;;7.05;34.27;95784.16;5074797;28;977;-48
2022/01/15 13:30:14;;;;;;;;;;;;;;;7.03;33.79;95783.44;5074505;28;1937;-48